createdAt,value
2023-02-14T00:01:21.776Z,18.17
2023-02-14T00:03:24.483Z,17.50
2023-02-14T00:05:27.340Z,18.13
2023-02-14T00:07:30.305Z,19.63
2023-02-14T00:09:33.651Z,16.70
2023-02-14T00:11:36.407Z,14.80
2023-02-14T00:13:39.205Z,15.10
2023-02-14T00:15:41.122Z,17.00
2023-02-14T00:17:45.416Z,16.87
2023-02-14T00:19:48.174Z,16.80
2023-02-14T00:21:51.087Z,16.90
2023-02-14T00:23:54.236Z,17.93
2023-02-14T00:25:57.017Z,20.67
2023-02-14T00:27:59.735Z,18.70
2023-02-14T00:30:03.324Z,16.80
2023-02-14T00:32:06.684Z,17.43
2023-02-14T00:34:10.869Z,18.23
2023-02-14T00:36:13.572Z,19.93
2023-02-14T00:38:16.230Z,19.07
2023-02-14T00:40:19.293Z,19.23
2023-02-14T00:42:21.966Z,20.60
2023-02-14T00:44:25.032Z,19.63
2023-02-14T00:46:27.810Z,19.47
2023-02-14T00:48:32.848Z,18.97
2023-02-14T00:50:37.337Z,19.27
2023-02-14T00:52:40.037Z,19.20
2023-02-14T00:54:42.746Z,21.80
2023-02-14T00:56:51.011Z,23.23
2023-02-14T00:58:53.717Z,20.60
2023-02-14T01:00:56.832Z,20.97
2023-02-14T01:02:59.791Z,23.03
2023-02-14T01:05:02.961Z,22.50
2023-02-14T01:07:06.971Z,24.90
2023-02-14T01:09:09.670Z,22.97
2023-02-14T01:11:13.344Z,22.77
2023-02-14T01:13:16.595Z,24.00
2023-02-14T01:15:19.396Z,26.53
2023-02-14T01:17:22.083Z,27.83
2023-02-14T01:19:24.777Z,28.53
2023-02-14T01:21:28.973Z,26.23
2023-02-14T01:23:32.980Z,29.77
2023-02-14T01:25:37.490Z,29.17
2023-02-14T01:27:40.254Z,29.37
2023-02-14T01:29:43.462Z,30.30
2023-02-14T01:31:48.364Z,30.10
2023-02-14T01:33:51.481Z,30.20
2023-02-14T01:35:54.744Z,28.73
2023-02-14T01:37:57.718Z,30.70
2023-02-14T01:40:02.440Z,31.60
2023-02-14T01:42:05.239Z,30.83
2023-02-14T01:44:08.909Z,31.47
2023-02-14T01:46:11.944Z,31.70
2023-02-14T01:48:15.245Z,33.70
2023-02-14T01:50:19.448Z,34.87
2023-02-14T01:52:24.690Z,34.57
2023-02-14T01:54:28.261Z,36.13
2023-02-14T01:56:35.006Z,33.20
2023-02-14T01:58:38.765Z,33.80
2023-02-14T02:00:52.884Z,34.87
2023-02-14T02:02:56.149Z,36.77
2023-02-14T02:04:58.851Z,36.90
2023-02-14T02:07:02.781Z,36.20
2023-02-14T02:09:10.502Z,39.03
2023-02-14T02:11:13.155Z,43.30
2023-02-14T02:13:18.277Z,38.10
2023-02-14T02:15:21.287Z,38.40
2023-02-14T02:17:27.905Z,37.07
2023-02-14T02:20:04.715Z,38.53
2023-02-14T02:22:20.620Z,40.70
2023-02-14T02:24:28.394Z,37.80
2023-02-14T02:27:00.144Z,41.37
2023-02-14T02:29:20.324Z,40.17
2023-02-14T02:31:33.284Z,40.00
2023-02-14T02:33:45.801Z,39.30
2023-02-14T02:35:57.387Z,41.27
2023-02-14T02:38:08.073Z,41.80
2023-02-14T02:40:20.527Z,40.50
2023-02-14T02:42:26.866Z,46.07
2023-02-14T02:44:33.556Z,42.30
2023-02-14T02:46:51.797Z,45.23
2023-02-14T02:49:00.996Z,42.80
2023-02-14T02:51:20.223Z,42.40
2023-02-14T02:53:24.513Z,44.63
2023-02-14T02:55:28.984Z,44.43
2023-02-14T02:57:33.751Z,43.40
2023-02-14T02:59:38.750Z,43.20
2023-02-14T03:01:43.232Z,42.70
2023-02-14T03:03:58.419Z,42.03
2023-02-14T03:06:01.402Z,43.10
2023-02-14T03:08:08.801Z,43.57
2023-02-14T03:10:13.322Z,43.80
2023-02-14T03:12:19.794Z,43.00
2023-02-14T03:14:23.369Z,41.93
2023-02-14T03:16:31.784Z,41.23
2023-02-14T03:18:39.952Z,41.40
2023-02-14T03:20:47.651Z,42.90
2023-02-14T03:22:50.287Z,45.37
2023-02-14T03:24:56.994Z,42.43
2023-02-14T03:27:04.364Z,42.40
2023-02-14T03:29:11.583Z,42.53
2023-02-14T03:31:19.017Z,44.57
2023-02-14T03:33:23.786Z,45.80
2023-02-14T03:35:31.392Z,41.33
2023-02-14T03:37:35.614Z,41.13
2023-02-14T03:39:41.117Z,44.00
2023-02-14T03:41:47.526Z,42.00
2023-02-14T03:43:52.068Z,42.53
2023-02-14T03:45:57.753Z,44.77
2023-02-14T03:48:03.136Z,43.50
2023-02-14T03:50:07.555Z,42.20
2023-02-14T03:52:10.752Z,43.90
2023-02-14T03:54:13.420Z,45.70
2023-02-14T03:56:18.626Z,43.80
2023-02-14T03:58:25.462Z,44.77
2023-02-14T04:00:28.599Z,45.60
2023-02-14T04:02:32.934Z,44.23
2023-02-14T04:04:37.467Z,46.33
2023-02-14T04:06:40.196Z,44.67
2023-02-14T04:08:42.905Z,42.50
2023-02-14T04:10:45.634Z,42.80
2023-02-14T04:12:48.900Z,42.37
2023-02-14T04:14:52.932Z,43.20
2023-02-14T04:17:06.640Z,40.07
2023-02-14T04:19:21.119Z,42.73
2023-02-14T04:21:23.845Z,44.20
2023-02-14T04:23:26.614Z,42.50
2023-02-14T04:25:29.375Z,40.00
2023-02-14T04:27:32.587Z,45.80
2023-02-14T04:29:35.285Z,41.57
2023-02-14T04:31:39.333Z,42.80
2023-02-14T04:33:42.140Z,45.77
2023-02-14T04:35:45.122Z,42.47
2023-02-14T04:37:47.803Z,44.03
2023-02-14T04:39:50.497Z,42.03
2023-02-14T04:41:53.250Z,42.43
2023-02-14T04:43:56.436Z,40.57
2023-02-14T04:45:59.132Z,41.57
2023-02-14T04:48:03.135Z,42.10
2023-02-14T04:50:06.509Z,43.27
2023-02-14T04:52:09.781Z,42.70
2023-02-14T04:54:12.565Z,39.80
2023-02-14T04:56:15.291Z,38.87
2023-02-14T04:58:18.108Z,39.43
2023-02-14T05:00:22.256Z,37.33
2023-02-14T05:02:25.004Z,37.50
2023-02-14T05:04:29.070Z,40.07
2023-02-14T05:06:32.889Z,39.97
2023-02-14T05:08:35.985Z,37.07
2023-02-14T05:10:38.688Z,37.47
2023-02-14T05:12:41.364Z,37.43
2023-02-14T05:14:44.081Z,36.30
2023-02-14T05:16:47.952Z,34.00
2023-02-14T05:18:50.678Z,37.57
2023-02-14T05:20:55.232Z,35.47
2023-02-14T05:22:59.921Z,34.20
2023-02-14T05:25:04.697Z,32.73
2023-02-14T05:27:11.629Z,37.23
2023-02-14T05:29:14.399Z,35.13
2023-02-14T05:31:17.697Z,34.03
2023-02-14T05:33:20.486Z,29.30
2023-02-14T05:35:23.188Z,32.70
2023-02-14T05:37:27.195Z,33.57
2023-02-14T05:39:30.357Z,30.97
2023-02-14T05:43:39.860Z,31.00
2023-02-14T05:45:42.612Z,27.67
2023-02-14T05:47:45.695Z,31.63
2023-02-14T05:49:48.439Z,31.33
2023-02-14T05:51:51.205Z,27.70
2023-02-14T05:53:55.634Z,28.83
2023-02-14T05:55:59.473Z,28.60
2023-02-14T05:58:02.796Z,25.90
2023-02-14T06:00:06.688Z,26.50
2023-02-14T06:02:09.508Z,25.90
2023-02-14T06:04:12.808Z,26.93
2023-02-14T06:06:15.548Z,27.27
2023-02-14T06:08:18.358Z,25.47
2023-02-14T06:10:23.201Z,27.20
2023-02-14T06:12:27.004Z,22.60
2023-02-14T06:14:29.715Z,23.30
2023-02-14T06:16:32.448Z,23.20
2023-02-14T06:18:35.190Z,22.73
2023-02-14T06:20:38.362Z,24.40
2023-02-14T06:22:41.086Z,22.00
2023-02-14T06:24:43.826Z,23.33
2023-02-14T06:26:47.852Z,21.60
2023-02-14T06:28:54.012Z,24.23
2023-02-14T06:30:56.883Z,19.73
2023-02-14T06:32:59.734Z,19.70
2023-02-14T06:35:03.422Z,20.70
2023-02-14T06:37:06.571Z,21.63
2023-02-14T06:39:09.311Z,21.27
2023-02-14T06:41:12.492Z,19.83
2023-02-14T06:43:16.449Z,21.00
2023-02-14T06:45:19.664Z,19.43
2023-02-14T06:47:22.373Z,19.50
2023-02-14T06:49:25.078Z,18.07
2023-02-14T06:51:27.887Z,19.03
2023-02-14T06:53:31.016Z,18.00
2023-02-14T06:55:33.823Z,18.97
2023-02-14T06:57:36.581Z,15.73
2023-02-14T06:59:40.702Z,15.80
2023-02-14T07:01:43.940Z,15.73
2023-02-14T07:03:46.755Z,16.87
2023-02-14T07:05:49.469Z,16.80
2023-02-14T07:07:52.207Z,15.73
2023-02-14T07:09:55.428Z,17.00
2023-02-14T07:11:58.186Z,15.10
2023-02-14T07:14:00.978Z,15.50
2023-02-14T07:16:05.326Z,16.50
2023-02-14T07:18:10.531Z,14.90
2023-02-14T07:20:13.786Z,17.10
2023-02-14T07:22:16.504Z,15.10
2023-02-14T07:24:19.690Z,18.17
2023-02-14T07:26:22.581Z,17.87
2023-02-14T07:28:25.359Z,18.57
2023-02-14T07:30:28.232Z,16.20
2023-02-14T07:32:32.744Z,16.43
2023-02-14T07:34:35.522Z,17.93
2023-02-14T07:36:38.748Z,17.37
2023-02-14T07:38:41.922Z,17.13
2023-02-14T07:40:44.621Z,17.33
2023-02-14T07:42:53.639Z,16.40
2023-02-14T07:44:56.339Z,15.87
2023-02-14T07:46:59.382Z,16.30
2023-02-14T07:49:03.408Z,16.73
2023-02-14T07:51:06.091Z,16.70
2023-02-14T07:53:09.347Z,17.80
2023-02-14T07:55:13.403Z,18.43
2023-02-14T07:57:16.143Z,17.90
2023-02-14T07:59:18.875Z,15.87
2023-02-14T08:01:27.268Z,16.80
2023-02-14T08:03:30.495Z,18.40
2023-02-14T08:05:34.462Z,17.40
2023-02-14T08:07:37.208Z,17.63
2023-02-14T08:09:41.360Z,17.33
2023-02-14T08:11:55.028Z,17.97
2023-02-14T08:13:57.755Z,17.93
2023-02-14T08:16:05.948Z,17.10
2023-02-14T08:18:09.444Z,18.43
2023-02-14T08:20:13.055Z,18.23
2023-02-14T08:22:18.263Z,18.03
2023-02-14T08:24:21.055Z,16.90
2023-02-14T08:26:23.836Z,18.33
2023-02-14T08:28:26.646Z,16.60
2023-02-14T08:30:29.441Z,19.07
2023-02-14T08:32:32.618Z,18.10
2023-02-14T08:34:35.463Z,17.17
2023-02-14T08:36:38.233Z,17.03
2023-02-14T08:38:43.963Z,17.67
2023-02-14T08:40:47.080Z,16.37
2023-02-14T08:42:49.761Z,17.27
2023-02-14T08:44:52.511Z,16.90
2023-02-14T08:46:55.279Z,15.60
2023-02-14T08:48:58.380Z,17.10
2023-02-14T08:51:01.423Z,15.83
2023-02-14T08:53:08.342Z,14.90
2023-02-14T08:55:12.820Z,15.30
2023-02-14T08:57:16.796Z,15.07
2023-02-14T08:59:19.541Z,15.90
2023-02-14T09:01:22.445Z,15.43
2023-02-14T09:03:25.293Z,14.60
2023-02-14T09:05:28.516Z,15.07
2023-02-14T09:07:31.270Z,15.03
2023-02-14T09:09:34.171Z,15.83
2023-02-14T09:11:38.372Z,14.80
2023-02-14T09:13:41.662Z,13.10
2023-02-14T09:15:44.546Z,14.27
2023-02-14T09:17:47.368Z,13.40
2023-02-14T09:19:50.614Z,13.70
2023-02-14T09:21:53.863Z,13.67
2023-02-14T09:23:57.438Z,13.63
2023-02-14T09:26:02.225Z,14.87
2023-02-14T09:28:06.930Z,14.07
2023-02-14T09:30:10.886Z,11.93
2023-02-14T09:32:13.879Z,12.50
2023-02-14T09:34:19.743Z,13.83
2023-02-14T09:36:25.500Z,15.40
2023-02-14T09:38:27.784Z,12.63
2023-02-14T09:40:30.560Z,13.23
2023-02-14T09:42:47.372Z,12.17
2023-02-14T09:44:52.463Z,11.10
2023-02-14T09:46:57.130Z,12.97
2023-02-14T09:48:59.821Z,11.50
2023-02-14T09:51:04.145Z,13.80
2023-02-14T09:53:09.141Z,11.70
2023-02-14T09:55:14.782Z,12.07
2023-02-14T09:57:22.240Z,11.03
2023-02-14T09:59:27.387Z,11.83
2023-02-14T10:01:34.385Z,12.23
2023-02-14T10:03:45.974Z,12.27
2023-02-14T10:05:50.714Z,11.67
2023-02-14T10:07:58.054Z,11.97
2023-02-14T10:10:01.974Z,14.30
2023-02-14T10:12:05.456Z,12.53
2023-02-14T10:14:10.958Z,12.70
2023-02-14T10:16:18.513Z,13.20
2023-02-14T10:18:23.329Z,14.00
2023-02-14T10:20:28.259Z,12.30
2023-02-14T10:22:34.336Z,13.70
2023-02-14T10:24:38.047Z,14.40
2023-02-14T10:26:41.754Z,15.83
2023-02-14T10:28:45.670Z,13.73
2023-02-14T10:30:51.107Z,14.37
2023-02-14T10:32:58.707Z,15.77
2023-02-14T10:35:05.973Z,17.93
2023-02-14T10:37:19.900Z,17.27
2023-02-14T10:39:31.656Z,16.37
2023-02-14T10:41:39.469Z,16.80
2023-02-14T10:43:46.234Z,15.60
2023-02-14T10:45:54.897Z,15.43
2023-02-14T10:48:01.385Z,16.97
2023-02-14T10:50:12.106Z,15.90
2023-02-14T10:52:19.690Z,16.77
2023-02-14T10:54:23.702Z,14.27
2023-02-14T10:56:29.194Z,18.50
2023-02-14T10:58:33.629Z,16.00
2023-02-14T11:00:38.184Z,15.97
2023-02-14T11:02:43.862Z,14.67
2023-02-14T11:04:47.623Z,14.73
2023-02-14T11:06:51.800Z,15.73
2023-02-14T11:08:56.309Z,16.60
2023-02-14T11:11:04.033Z,17.63
2023-02-14T11:13:11.741Z,17.83
2023-02-14T11:15:22.510Z,18.53
2023-02-14T11:17:28.772Z,19.13
2023-02-14T11:19:34.106Z,18.70
2023-02-14T11:21:39.394Z,19.00
2023-02-14T11:23:44.566Z,26.23
2023-02-14T11:25:51.348Z,20.10
2023-02-14T11:27:58.688Z,18.50
2023-02-14T11:30:02.289Z,20.37
2023-02-14T11:32:09.823Z,18.67
2023-02-14T11:34:25.964Z,20.20
2023-02-14T11:36:28.927Z,17.27
2023-02-14T11:38:34.004Z,19.90
2023-02-14T11:40:39.494Z,20.90
2023-02-14T11:42:43.318Z,20.17
2023-02-14T11:44:58.478Z,18.93
2023-02-14T11:47:17.565Z,18.33
2023-02-14T11:49:28.219Z,20.17
2023-02-14T11:51:32.795Z,20.83
2023-02-14T11:53:44.534Z,21.43
2023-02-14T11:55:51.810Z,20.20
2023-02-14T11:57:54.560Z,19.30
2023-02-14T11:59:57.762Z,19.97
2023-02-14T12:02:02.977Z,19.53
2023-02-14T12:04:07.301Z,18.73
2023-02-14T12:06:10.108Z,17.70
2023-02-14T12:08:12.825Z,17.77
2023-02-14T12:10:21.759Z,17.80
2023-02-14T12:12:25.762Z,21.40
2023-02-14T12:14:29.827Z,19.17
2023-02-14T12:16:35.435Z,18.67
2023-02-14T12:18:44.450Z,17.90
2023-02-14T12:20:51.001Z,17.27
2023-02-14T12:22:56.625Z,16.40
2023-02-14T12:25:02.606Z,14.77
2023-02-14T12:27:11.974Z,16.47
2023-02-14T12:29:20.045Z,16.10
2023-02-14T12:31:23.236Z,18.00
2023-02-14T12:33:26.557Z,14.43
2023-02-14T12:35:37.850Z,16.23
2023-02-14T12:37:50.865Z,16.73
2023-02-14T12:40:08.550Z,18.67
2023-02-14T12:42:17.697Z,15.73
2023-02-14T12:44:25.012Z,13.63
2023-02-14T12:46:36.418Z,15.60
2023-02-14T12:48:46.001Z,15.50
2023-02-14T12:50:49.161Z,15.23
2023-02-14T12:52:59.089Z,14.30
2023-02-14T12:55:10.769Z,13.00
2023-02-14T12:57:19.590Z,13.50
2023-02-14T12:59:29.975Z,15.30
2023-02-14T13:01:48.558Z,18.17
2023-02-14T13:04:03.350Z,18.60
2023-02-14T13:06:08.600Z,18.70
2023-02-14T13:08:19.965Z,18.83
2023-02-14T13:10:27.650Z,17.33
2023-02-14T13:12:35.070Z,19.40
2023-02-14T13:14:46.872Z,15.50
2023-02-14T13:16:51.943Z,15.77
2023-02-14T13:19:01.051Z,16.80
2023-02-14T13:21:05.125Z,15.97
2023-02-14T13:23:13.557Z,16.00
2023-02-14T13:25:20.504Z,16.90
2023-02-14T13:27:24.946Z,15.80
2023-02-14T13:29:29.155Z,14.57
2023-02-14T13:31:33.662Z,16.80
2023-02-14T13:33:38.415Z,15.20
2023-02-14T13:35:41.137Z,14.27
2023-02-14T13:37:44.127Z,14.90
2023-02-14T13:39:49.531Z,13.77
2023-02-14T13:41:52.439Z,14.57
2023-02-14T13:43:56.915Z,14.27
2023-02-14T13:45:59.668Z,15.17
2023-02-14T13:48:05.685Z,14.53
2023-02-14T13:50:20.833Z,14.40
2023-02-14T13:52:39.597Z,16.23
2023-02-14T13:54:45.079Z,14.73
2023-02-14T13:56:50.599Z,14.83
2023-02-14T13:58:55.052Z,15.60
2023-02-14T14:00:58.113Z,14.97
2023-02-14T14:03:00.918Z,13.53
2023-02-14T14:05:21.656Z,16.57
2023-02-14T14:07:27.122Z,15.23
2023-02-14T14:09:54.854Z,15.47
2023-02-14T14:11:58.402Z,16.00
2023-02-14T14:14:02.602Z,14.67
2023-02-14T14:16:27.967Z,15.57
2023-02-14T14:18:32.804Z,15.03
2023-02-14T14:20:43.317Z,13.93
2023-02-14T14:22:47.730Z,15.30
2023-02-14T14:24:58.281Z,18.07
2023-02-14T14:27:01.547Z,13.73
2023-02-14T14:29:11.723Z,14.57
2023-02-14T14:31:14.565Z,14.47
2023-02-14T14:33:21.990Z,20.10
2023-02-14T14:35:25.486Z,15.30
2023-02-14T14:37:30.485Z,15.03
2023-02-14T14:39:35.968Z,15.53
2023-02-14T14:41:42.010Z,15.17
2023-02-14T14:43:45.070Z,15.70
2023-02-14T14:45:47.904Z,14.67
2023-02-14T14:47:54.085Z,16.27
2023-02-14T14:50:00.212Z,14.70
2023-02-14T14:52:19.860Z,16.70
2023-02-14T14:54:25.028Z,15.37
2023-02-14T14:56:29.339Z,13.67
2023-02-14T14:58:35.352Z,13.40
2023-02-14T15:00:38.774Z,13.50
2023-02-14T15:02:41.509Z,14.03
2023-02-14T15:04:44.260Z,12.57
2023-02-14T15:06:47.132Z,13.40
2023-02-14T15:08:51.405Z,13.47
2023-02-14T15:10:57.079Z,13.97
2023-02-14T15:13:10.789Z,11.80
2023-02-14T15:15:17.039Z,12.53
2023-02-14T15:17:20.909Z,11.43
2023-02-14T15:19:26.700Z,12.53
2023-02-14T15:21:29.445Z,12.20
2023-02-14T15:23:33.035Z,12.63
2023-02-14T15:25:36.462Z,11.93
2023-02-14T15:27:42.093Z,12.03
2023-02-14T15:29:54.358Z,11.60
2023-02-14T15:31:57.633Z,11.57
2023-02-14T15:34:01.440Z,10.77
2023-02-14T15:36:05.665Z,12.70
2023-02-14T15:38:08.675Z,10.87
2023-02-14T15:40:17.493Z,11.97
2023-02-14T15:42:22.630Z,11.97
2023-02-14T15:44:29.441Z,13.00
2023-02-14T15:46:35.225Z,12.03
2023-02-14T15:48:39.972Z,11.40
2023-02-14T15:50:46.120Z,11.93
2023-02-14T15:52:48.804Z,11.23
2023-02-14T15:54:51.786Z,11.50
2023-02-14T15:56:54.560Z,11.90
2023-02-14T15:59:00.803Z,10.83
2023-02-14T16:01:05.202Z,11.23
2023-02-14T16:03:08.838Z,12.47
2023-02-14T16:05:17.385Z,11.90
2023-02-14T16:07:23.867Z,12.13
2023-02-14T16:09:29.558Z,11.57
2023-02-14T16:11:35.028Z,12.97
2023-02-14T16:13:38.084Z,11.63
2023-02-14T16:15:42.829Z,11.27
2023-02-14T16:17:47.323Z,11.30
2023-02-14T16:19:50.095Z,12.20
2023-02-14T16:21:56.252Z,11.93
2023-02-14T16:24:11.576Z,12.13
2023-02-14T16:26:14.691Z,12.33
2023-02-14T16:28:17.744Z,11.90
2023-02-14T16:30:21.191Z,12.67
2023-02-14T16:32:25.355Z,12.20
2023-02-14T16:34:29.578Z,11.80
2023-02-14T16:36:32.923Z,11.53
2023-02-14T16:38:37.890Z,14.40
2023-02-14T16:40:40.961Z,10.93
2023-02-14T16:42:43.641Z,10.53
2023-02-14T16:44:46.513Z,11.47
2023-02-14T16:46:49.231Z,10.80
2023-02-14T16:48:53.037Z,13.40
2023-02-14T16:50:57.253Z,13.67
2023-02-14T16:52:59.955Z,12.13
2023-02-14T16:55:02.999Z,11.80
2023-02-14T16:57:05.843Z,11.70
2023-02-14T16:59:08.580Z,12.23
2023-02-14T17:01:11.331Z,16.30
2023-02-14T17:03:14.435Z,12.17
2023-02-14T17:05:17.260Z,12.27
2023-02-14T17:07:21.516Z,10.67
2023-02-14T17:09:27.268Z,10.63
2023-02-14T17:11:30.873Z,11.60
2023-02-14T17:13:34.065Z,10.10
2023-02-14T17:15:36.850Z,10.40
2023-02-14T17:17:39.687Z,11.00
2023-02-14T17:19:42.659Z,10.00
2023-02-14T17:21:45.478Z,9.40
2023-02-14T17:23:49.539Z,10.07
2023-02-14T17:25:52.570Z,10.77
2023-02-14T17:27:56.398Z,11.30
2023-02-14T17:29:59.181Z,9.83
2023-02-14T17:32:01.994Z,10.10
2023-02-14T17:34:05.029Z,11.13
2023-02-14T17:36:10.133Z,9.30
2023-02-14T17:38:14.523Z,11.03
2023-02-14T17:40:18.546Z,10.03
2023-02-14T17:42:22.870Z,9.27
2023-02-14T17:44:26.074Z,9.93
2023-02-14T17:46:29.285Z,9.50
2023-02-14T17:48:31.984Z,10.23
2023-02-14T17:50:35.018Z,8.90
2023-02-14T17:52:37.864Z,8.87
2023-02-14T17:54:40.656Z,8.97
2023-02-14T17:56:44.618Z,8.33
2023-02-14T17:58:48.449Z,9.80
2023-02-14T18:00:51.187Z,9.30
2023-02-14T18:02:53.910Z,10.53
2023-02-14T18:04:57.728Z,9.50
2023-02-14T18:07:00.832Z,9.37
2023-02-14T18:09:05.688Z,8.03
2023-02-14T18:11:08.602Z,8.57
2023-02-14T18:13:12.591Z,9.43
2023-02-14T18:15:16.352Z,8.73
2023-02-14T18:17:19.405Z,7.67
2023-02-14T18:19:22.067Z,8.90
2023-02-14T18:21:25.405Z,8.90
2023-02-14T18:23:31.234Z,8.80
2023-02-14T18:25:34.088Z,8.90
2023-02-14T18:27:36.775Z,8.77
2023-02-14T18:29:40.829Z,10.97
2023-02-14T18:31:44.543Z,8.40
2023-02-14T18:33:48.078Z,8.70
2023-02-14T18:35:50.805Z,9.23
2023-02-14T18:37:56.326Z,8.37
2023-02-14T18:40:00.579Z,8.50
2023-02-14T18:42:04.470Z,7.73
2023-02-14T18:44:07.280Z,8.80
2023-02-14T18:46:13.611Z,9.17
2023-02-14T18:48:16.639Z,10.50
2023-02-14T18:50:19.595Z,10.50
2023-02-14T18:52:24.789Z,10.63
2023-02-14T18:54:28.105Z,10.77
2023-02-14T18:56:32.368Z,10.40
2023-02-14T18:58:35.231Z,12.33
2023-02-14T19:00:38.024Z,11.47
2023-02-14T19:02:42.090Z,12.73
2023-02-14T19:04:45.791Z,14.13
2023-02-14T19:06:49.327Z,14.30
2023-02-14T19:08:52.165Z,14.20
2023-02-14T19:10:57.650Z,13.13
2023-02-14T19:13:00.723Z,12.97
2023-02-14T19:15:03.931Z,15.40
2023-02-14T19:17:06.707Z,15.90
2023-02-14T19:19:11.026Z,16.27
2023-02-14T19:21:14.365Z,17.70
2023-02-14T19:23:17.346Z,14.20
2023-02-14T19:25:20.156Z,16.00
2023-02-14T19:27:23.901Z,15.00
2023-02-14T19:29:27.064Z,15.40
2023-02-14T19:31:30.497Z,16.20
2023-02-14T19:33:39.695Z,15.10
2023-02-14T19:35:43.682Z,16.23
2023-02-14T19:37:46.698Z,16.70
2023-02-14T19:39:49.458Z,14.40
2023-02-14T19:41:52.535Z,16.53
2023-02-14T19:43:56.780Z,14.07
2023-02-14T19:45:59.949Z,13.97
2023-02-14T19:48:03.558Z,16.30
2023-02-14T19:50:07.238Z,15.23
2023-02-14T19:52:25.693Z,15.83
2023-02-14T19:54:30.019Z,16.10
2023-02-14T19:56:34.198Z,14.40
2023-02-14T19:58:37.016Z,16.37
2023-02-14T20:00:40.142Z,13.63
2023-02-14T20:02:47.936Z,14.73
2023-02-14T20:04:50.667Z,16.03
2023-02-14T20:06:53.551Z,14.63
2023-02-14T20:08:58.868Z,15.60
2023-02-14T20:11:02.000Z,16.40
2023-02-14T20:13:22.527Z,14.90
2023-02-14T20:15:26.364Z,16.37
2023-02-14T20:17:29.408Z,14.90
2023-02-14T20:19:34.187Z,16.07
2023-02-14T20:21:36.917Z,16.77
2023-02-14T20:23:39.633Z,17.17
2023-02-14T20:25:43.714Z,17.73
2023-02-14T20:27:46.412Z,16.10
2023-02-14T20:29:50.624Z,16.20
2023-02-14T20:31:55.288Z,20.33
2023-02-14T20:33:58.111Z,19.67
2023-02-14T20:36:01.984Z,17.10
2023-02-14T20:38:07.658Z,18.93
2023-02-14T20:40:12.535Z,19.40
2023-02-14T20:42:16.825Z,19.40
2023-02-14T20:44:21.711Z,18.90
2023-02-14T20:46:24.571Z,17.27
2023-02-14T20:48:27.624Z,19.87
2023-02-14T20:50:30.304Z,20.40
2023-02-14T20:52:33.025Z,18.73
2023-02-14T20:54:37.543Z,17.27
2023-02-14T20:56:41.753Z,22.07
2023-02-14T20:58:45.772Z,18.50
2023-02-14T21:00:49.123Z,19.73
2023-02-14T21:02:51.806Z,17.30
2023-02-14T21:04:55.595Z,19.70
2023-02-14T21:07:00.189Z,19.90
2023-02-14T21:09:03.254Z,18.90
2023-02-14T21:11:08.701Z,20.77
2023-02-14T21:13:14.522Z,21.83
2023-02-14T21:15:18.548Z,18.93
2023-02-14T21:17:21.258Z,19.63
2023-02-14T21:19:24.015Z,18.20
2023-02-14T21:21:32.286Z,20.50
2023-02-14T21:23:35.032Z,18.93
2023-02-14T21:25:37.721Z,19.00
2023-02-14T21:27:40.417Z,22.43
2023-02-14T21:29:43.626Z,18.47
2023-02-14T21:31:47.770Z,20.63
2023-02-14T21:33:50.884Z,19.83
2023-02-14T21:35:55.214Z,20.33
2023-02-14T21:37:58.213Z,20.87
2023-02-14T21:40:00.908Z,20.47
2023-02-14T21:42:03.627Z,21.03
2023-02-14T21:44:06.541Z,19.63
2023-02-14T21:46:09.451Z,20.73
2023-02-14T21:48:24.400Z,21.87
2023-02-14T21:50:31.175Z,21.97
2023-02-14T21:52:33.906Z,19.57
2023-02-14T21:54:37.002Z,23.83
2023-02-14T21:56:39.978Z,22.00
2023-02-14T21:58:42.704Z,21.37
2023-02-14T22:00:45.986Z,21.97
2023-02-14T22:02:49.124Z,20.10
2023-02-14T22:04:53.177Z,22.70
2023-02-14T22:06:57.100Z,22.03
2023-02-14T22:09:00.072Z,24.63
2023-02-14T22:11:05.670Z,20.00
2023-02-14T22:13:09.188Z,20.10
2023-02-14T22:15:12.391Z,22.63
2023-02-14T22:17:15.084Z,22.07
2023-02-14T22:19:18.145Z,22.63
2023-02-14T22:21:22.976Z,19.80
2023-02-14T22:23:28.887Z,22.77
2023-02-14T22:25:31.783Z,23.17
2023-02-14T22:27:39.044Z,20.40
2023-02-14T22:29:41.913Z,20.53
2023-02-14T22:31:45.206Z,19.10
2023-02-14T22:33:48.177Z,18.13
2023-02-14T22:35:55.343Z,21.40
2023-02-14T22:37:59.372Z,20.27
2023-02-14T22:40:02.094Z,20.00
2023-02-14T22:42:06.847Z,19.83
2023-02-14T22:44:09.832Z,20.00
2023-02-14T22:46:13.636Z,19.90
2023-02-14T22:48:17.771Z,19.30
2023-02-14T22:50:20.543Z,20.00
2023-02-14T22:52:23.646Z,19.27
2023-02-14T22:54:28.048Z,21.10
2023-02-14T22:56:32.595Z,17.90
2023-02-14T22:58:35.754Z,17.80
2023-02-14T23:00:38.430Z,20.13
2023-02-14T23:02:41.271Z,18.70
2023-02-14T23:04:44.221Z,17.50
2023-02-14T23:06:47.362Z,20.33
2023-02-14T23:08:50.076Z,17.47
2023-02-14T23:10:54.070Z,17.93
2023-02-14T23:13:08.358Z,19.70
2023-02-14T23:15:22.310Z,17.90
2023-02-14T23:17:36.150Z,16.33
2023-02-14T23:19:50.146Z,19.00
2023-02-14T23:21:55.907Z,17.20
2023-02-14T23:23:58.830Z,15.73
2023-02-14T23:26:03.113Z,16.97
2023-02-14T23:28:07.310Z,18.53
2023-02-14T23:30:12.004Z,18.27
2023-02-14T23:32:14.981Z,17.13
2023-02-14T23:34:17.769Z,17.97
2023-02-14T23:36:20.732Z,17.90
2023-02-14T23:38:23.452Z,19.50
2023-02-14T23:40:26.204Z,21.40
2023-02-14T23:42:30.258Z,20.63
2023-02-14T23:44:33.333Z,20.67
2023-02-14T23:46:36.105Z,18.77
2023-02-14T23:48:38.830Z,18.80
2023-02-14T23:50:41.534Z,16.93
2023-02-14T23:52:44.810Z,17.10
2023-02-14T23:54:47.524Z,18.73
2023-02-14T23:56:50.252Z,21.07
2023-02-14T23:58:54.255Z,21.57
